Bert Mooney Airport
KBTM : rendu visible

Aérodrome :











RETROUVEZ-NOUS SUR...

 
LOGIN :

S'inscrire | Disclaimer

   EN    FR    IT 

 









Légende :    VFR   VFR Marginal   IFR   IFR Intensif   IFR Très Intensif
Visi : 
Plafond : 
>= 8 km
>= 3000ft
5 à 8 km
1000 à 3000 ft
1500m à 5 km
500 à 1000 ft
800 à 1500m
200 à 500 ft
< 800m
< 200 ft
Symboles :   Orages  Brouillard  Fortes neiges  Fortes précipitations  Vent > 20 kt






- Altitude de l'aérodrome : 5550 ft
- Code IATA : BTM


KBTM - Bert Mooney

DERNIER METAR :
  • 011653Z AUTO 00000KT 10SM CLR 11/01 A3044 RMK AO2 SLP292 T01060006

METARs EXPIRÉS :
  • 011553Z AUTO 00000KT 10SM CLR 06/01 A3044 RMK AO2 SLP299 T00560006
  • 011453Z AUTO 12003KT 10SM CLR 01/M02 A3045 RMK AO2 SLP307 T00061022 56007

TAF KBTM
Valide du 01 à 12h jusqu'au 02 à 12h UTC


011120Z 0112/0212 14004KT P6SM SKC
FM012000 30008KT P6SM SCT250
FIR KZLC / Amérique du Nord



MET'MAP, la Météo Aéronautique d'un coup d'oeil ! - Copyright ORBIFLY Décembre 2007 - Disclaimer

ORBIFLY MET'MAP TEAM :

Programmation & Développement : Alexandra Zaïnal
Sur une idée originale de : Baudouin d'Aumeries
Assistance à la programmation : Marc-Olivier Méhu
Soutien technique & logistique : Manuel Goepfert

Contact : metmap@orbifly.com




SOURCES & CREDITS :

   NOAA       Earth
Advisory